createdAt,value
2022-07-26T00:01:25.917Z,2.85
2022-07-26T00:06:35.014Z,3.00
2022-07-26T00:11:37.825Z,3.10
2022-07-26T00:16:41.060Z,3.20
2022-07-26T00:21:43.845Z,4.10
2022-07-26T00:26:46.658Z,3.63
2022-07-26T00:31:50.095Z,3.55
2022-07-26T00:36:52.970Z,3.60
2022-07-26T00:41:55.929Z,3.53
2022-07-26T00:46:58.759Z,3.90
2022-07-26T00:52:01.658Z,4.00
2022-07-26T00:57:05.204Z,3.78
2022-07-26T01:02:09.204Z,4.25
2022-07-26T01:07:14.763Z,3.92
2022-07-26T01:12:18.357Z,4.20
2022-07-26T01:17:20.803Z,4.10
2022-07-26T01:22:23.359Z,4.18
2022-07-26T01:27:28.541Z,4.30
2022-07-26T01:32:33.205Z,6.07
2022-07-26T01:37:35.707Z,3.95
2022-07-26T01:42:40.961Z,3.60
2022-07-26T01:47:44.897Z,4.38
2022-07-26T01:52:47.380Z,3.90
2022-07-26T01:57:49.925Z,3.90
2022-07-26T02:02:52.745Z,4.63
2022-07-26T02:07:55.394Z,5.55
2022-07-26T02:12:58.936Z,5.57
2022-07-26T02:18:01.365Z,8.95
2022-07-26T02:23:04.406Z,12.05
2022-07-26T02:28:07.109Z,14.82
2022-07-26T02:33:09.571Z,15.55
2022-07-26T02:38:14.021Z,15.48
2022-07-26T02:43:16.473Z,16.25
2022-07-26T02:48:19.558Z,16.25
2022-07-26T02:53:22.019Z,16.55
2022-07-26T02:58:25.233Z,16.65
2022-07-26T03:03:27.805Z,15.25
2022-07-26T03:08:30.274Z,14.13
2022-07-26T03:13:33.438Z,14.48
2022-07-26T03:18:36.147Z,13.73
2022-07-26T03:23:38.619Z,12.87
2022-07-26T03:28:42.646Z,12.55
2022-07-26T03:33:45.116Z,12.80
2022-07-26T03:38:47.575Z,13.05
2022-07-26T03:43:50.024Z,12.43
2022-07-26T03:48:52.921Z,13.40
2022-07-26T03:53:55.388Z,13.20
2022-07-26T03:59:04.875Z,13.45
2022-07-26T04:04:09.597Z,14.35
2022-07-26T04:09:12.991Z,15.00
2022-07-26T04:14:15.487Z,12.80
2022-07-26T04:19:17.961Z,12.07
2022-07-26T04:24:20.412Z,11.75
2022-07-26T04:29:28.095Z,10.82
2022-07-26T04:34:30.636Z,10.18
2022-07-26T04:39:33.126Z,9.70
2022-07-26T04:44:38.794Z,8.90
2022-07-26T04:49:41.470Z,8.43
2022-07-26T04:54:43.921Z,8.10
2022-07-26T04:59:58.101Z,7.05
2022-07-26T05:05:09.156Z,6.03
2022-07-26T05:10:12.748Z,5.72
2022-07-26T05:15:15.779Z,5.10
2022-07-26T05:20:18.232Z,4.90
2022-07-26T05:25:20.708Z,4.80
2022-07-26T05:30:23.268Z,5.30
2022-07-26T05:35:25.796Z,5.27
2022-07-26T05:40:28.383Z,4.70
2022-07-26T05:45:31.043Z,4.35
2022-07-26T05:50:34.013Z,3.75
2022-07-26T05:55:36.501Z,4.13
2022-07-26T06:00:39.050Z,3.33
2022-07-26T06:05:41.500Z,3.10
2022-07-26T06:10:44.818Z,3.65
2022-07-26T06:15:47.602Z,2.92
2022-07-26T06:20:50.620Z,3.25
2022-07-26T06:25:53.202Z,3.15
2022-07-26T06:30:55.646Z,2.35
2022-07-26T06:35:58.214Z,2.70
2022-07-26T06:41:00.806Z,2.58
2022-07-26T06:46:03.365Z,2.63
2022-07-26T06:51:06.226Z,2.95
2022-07-26T06:56:08.879Z,4.80
2022-07-26T07:01:11.398Z,3.10
2022-07-26T07:06:13.975Z,3.60
2022-07-26T07:11:16.469Z,4.20
2022-07-26T07:16:21.032Z,4.80
2022-07-26T07:21:23.568Z,5.03
2022-07-26T07:26:26.301Z,5.03
2022-07-26T07:31:30.115Z,3.45
2022-07-26T07:36:33.113Z,3.80
2022-07-26T07:41:38.188Z,3.30
2022-07-26T07:46:41.123Z,3.13
2022-07-26T07:51:44.087Z,3.05
2022-07-26T07:56:48.267Z,2.70
2022-07-26T08:01:53.485Z,2.33
2022-07-26T08:06:55.943Z,3.20
2022-07-26T08:12:00.013Z,2.20
2022-07-26T08:17:02.996Z,2.85
2022-07-26T08:22:08.223Z,4.40
2022-07-26T08:27:10.800Z,2.50
2022-07-26T08:32:13.253Z,3.10
2022-07-26T08:37:17.380Z,3.95
2022-07-26T08:42:23.182Z,3.97
2022-07-26T08:47:35.649Z,3.28
2022-07-26T08:52:45.968Z,3.72
2022-07-26T08:57:48.887Z,2.70
2022-07-26T09:02:52.804Z,4.40
2022-07-26T09:07:56.282Z,7.13
2022-07-26T09:12:58.705Z,2.63
2022-07-26T09:18:01.207Z,6.05
2022-07-26T09:23:07.585Z,3.47
2022-07-26T09:28:33.444Z,3.00
2022-07-26T09:33:51.221Z,4.22
2022-07-26T09:38:56.112Z,3.28
2022-07-26T09:44:01.327Z,3.10
2022-07-26T09:49:22.604Z,2.75
2022-07-26T09:54:33.871Z,2.78
2022-07-26T09:59:36.400Z,2.92
2022-07-26T10:04:38.983Z,2.70
2022-07-26T10:09:52.938Z,2.42
2022-07-26T10:14:56.425Z,2.10
2022-07-26T10:20:01.911Z,2.70
2022-07-26T10:25:20.113Z,3.13
2022-07-26T10:30:34.457Z,2.22
2022-07-26T10:35:43.595Z,1.90
2022-07-26T10:41:30.415Z,2.10
2022-07-26T10:46:33.344Z,2.45
2022-07-26T10:51:38.464Z,2.72
2022-07-26T10:56:41.261Z,2.60
2022-07-26T11:01:45.459Z,3.20
2022-07-26T11:06:48.398Z,2.83
2022-07-26T11:11:52.425Z,2.40
2022-07-26T11:16:55.185Z,2.50
2022-07-26T11:22:00.519Z,3.13
2022-07-26T11:27:04.505Z,2.55
2022-07-26T11:32:18.188Z,2.35
2022-07-26T11:37:20.876Z,2.00
2022-07-26T11:42:23.516Z,2.33
2022-07-26T11:47:26.572Z,3.25
2022-07-26T11:52:35.310Z,2.10
2022-07-26T11:57:38.462Z,2.28
2022-07-26T12:02:40.969Z,3.30
2022-07-26T12:08:02.890Z,1.35
2022-07-26T12:13:16.147Z,1.60
2022-07-26T12:18:30.276Z,1.13
2022-07-26T12:23:48.368Z,2.00
2022-07-26T12:28:51.464Z,1.52
2022-07-26T12:33:53.992Z,1.33
2022-07-26T12:38:58.546Z,4.25
2022-07-26T12:44:01.260Z,1.35
2022-07-26T12:49:04.921Z,2.50
2022-07-26T12:54:08.899Z,1.45
2022-07-26T12:59:17.865Z,1.50
2022-07-26T13:04:20.627Z,1.02
2022-07-26T13:09:24.302Z,0.90
2022-07-26T13:14:27.164Z,0.85
2022-07-26T13:19:30.335Z,1.20
2022-07-26T13:24:33.889Z,0.90
2022-07-26T13:29:37.243Z,1.00
2022-07-26T13:34:39.755Z,0.90
2022-07-26T13:39:44.098Z,0.90
2022-07-26T13:44:46.551Z,0.90
2022-07-26T13:49:49.002Z,1.33
2022-07-26T13:54:51.441Z,1.48
2022-07-26T13:59:54.362Z,1.00
2022-07-26T14:04:56.734Z,2.53
2022-07-26T14:09:59.146Z,1.20
2022-07-26T14:15:01.648Z,2.00
2022-07-26T14:20:05.376Z,1.60
2022-07-26T14:25:08.286Z,1.10
2022-07-26T14:30:11.264Z,1.35
2022-07-26T14:35:16.568Z,1.20
2022-07-26T14:40:18.996Z,1.60
2022-07-26T14:45:21.469Z,1.08
2022-07-26T14:50:25.995Z,1.33
2022-07-26T14:55:28.621Z,1.27
2022-07-26T15:00:31.469Z,2.45
2022-07-26T15:05:33.904Z,1.15
2022-07-26T15:10:36.400Z,1.00
2022-07-26T15:15:38.855Z,2.00
2022-07-26T15:20:42.157Z,0.70
2022-07-26T15:25:44.771Z,3.33
2022-07-26T15:30:47.190Z,1.00
2022-07-26T15:35:50.752Z,1.00
2022-07-26T15:40:53.195Z,3.47
2022-07-26T15:45:57.605Z,2.03
2022-07-26T15:51:01.829Z,4.18
2022-07-26T15:56:04.462Z,2.78
2022-07-26T16:01:07.402Z,3.60
2022-07-26T16:06:09.894Z,1.77
2022-07-26T16:11:12.364Z,2.00
2022-07-26T16:16:14.893Z,2.83
2022-07-26T16:21:17.663Z,2.53
2022-07-26T16:26:20.151Z,1.98
2022-07-26T16:31:22.693Z,5.68
2022-07-26T16:36:25.446Z,1.25
2022-07-26T16:41:29.115Z,2.75
2022-07-26T16:46:31.777Z,2.35
2022-07-26T16:51:34.269Z,2.05
2022-07-26T16:56:36.718Z,3.33
2022-07-26T17:01:39.442Z,2.22
2022-07-26T17:06:41.954Z,2.20
2022-07-26T17:11:54.726Z,1.60
2022-07-26T17:16:58.965Z,1.73
2022-07-26T17:22:01.382Z,1.90
2022-07-26T17:27:03.942Z,1.60
2022-07-26T17:32:07.658Z,5.95
2022-07-26T17:37:10.470Z,2.15
2022-07-26T17:42:14.814Z,2.22
2022-07-26T17:47:28.522Z,2.20
2022-07-26T17:52:32.215Z,2.25
2022-07-26T17:57:34.599Z,1.80
2022-07-26T18:02:37.677Z,1.88
2022-07-26T18:07:40.501Z,1.80
2022-07-26T18:12:43.018Z,2.58
2022-07-26T18:17:45.400Z,16.98
2022-07-26T18:22:49.956Z,2.67
2022-07-26T18:27:53.865Z,2.20
2022-07-26T18:32:57.034Z,1.90
2022-07-26T18:37:59.462Z,1.98
2022-07-26T18:43:01.954Z,1.98
2022-07-26T18:48:04.433Z,2.03
2022-07-26T18:53:07.558Z,2.33
2022-07-26T18:58:10.341Z,2.70
2022-07-26T19:03:13.094Z,3.08
2022-07-26T19:08:15.565Z,31.40
2022-07-26T19:13:17.922Z,18.15
2022-07-26T19:18:20.308Z,5.95
2022-07-26T19:23:22.653Z,3.10
2022-07-26T19:28:25.447Z,2.97
2022-07-26T19:33:28.274Z,2.77
2022-07-26T19:38:33.285Z,2.58
2022-07-26T19:43:35.874Z,2.47
2022-07-26T19:48:38.551Z,2.38
2022-07-26T19:53:41.275Z,2.40
2022-07-26T19:58:44.420Z,2.63
2022-07-26T20:03:47.229Z,2.90
2022-07-26T20:08:50.768Z,3.03
2022-07-26T20:13:54.163Z,2.60
2022-07-26T20:18:56.692Z,3.00
2022-07-26T20:23:59.301Z,2.80
2022-07-26T20:29:02.103Z,3.00
2022-07-26T20:34:04.596Z,3.10
2022-07-26T20:39:07.069Z,2.50
2022-07-26T20:44:09.473Z,2.50
2022-07-26T20:49:12.709Z,2.20
2022-07-26T20:54:15.387Z,2.77
2022-07-26T20:59:17.812Z,2.50
2022-07-26T21:04:20.576Z,2.93
2022-07-26T21:09:27.052Z,3.13
2022-07-26T21:14:29.466Z,3.03
2022-07-26T21:19:31.890Z,3.30
2022-07-26T21:24:37.470Z,3.13
2022-07-26T21:29:39.951Z,2.70
2022-07-26T21:34:42.438Z,3.10
2022-07-26T21:39:44.936Z,2.87
2022-07-26T21:44:48.146Z,2.60
2022-07-26T21:49:50.555Z,2.70
2022-07-26T21:54:52.916Z,2.67
2022-07-26T21:59:55.281Z,3.13
2022-07-26T22:04:59.997Z,3.17
2022-07-26T22:10:02.535Z,3.07
2022-07-26T22:15:05.256Z,3.40
2022-07-26T22:20:09.129Z,4.03
2022-07-26T22:25:11.730Z,5.20
2022-07-26T22:30:14.233Z,4.53
2022-07-26T22:35:16.694Z,4.93
2022-07-26T22:40:19.201Z,4.53
2022-07-26T22:45:21.818Z,4.70
2022-07-26T22:50:25.333Z,3.67
2022-07-26T22:55:28.656Z,3.67
2022-07-26T23:00:31.095Z,4.40
2022-07-26T23:05:45.759Z,5.80
2022-07-26T23:10:49.847Z,5.80
2022-07-26T23:15:56.755Z,5.30
2022-07-26T23:21:03.837Z,5.30
2022-07-26T23:26:06.708Z,4.53
2022-07-26T23:31:11.514Z,4.73
2022-07-26T23:36:14.255Z,4.80
2022-07-26T23:41:16.838Z,5.13
2022-07-26T23:46:19.551Z,4.90
2022-07-26T23:51:25.407Z,5.43
2022-07-26T23:56:27.906Z,4.60
